Ottawa Lake, Michigan
Current Conditions -  °F | °C
As of 7:34 PM on Thursday 27 Nov 2014 (Local Time) from KDUH Reporting Station
Light Snow Light Snow  
Wind Chill: 22°   Ceiling: 3000
Heat Index: 30°   Visibility: 4mi
Dew Point: 27°   Wind: 9mph
Humidity: 86%   Direction: 330°NNW
Pressure: 30.28"   Gusts: NA
Location:  41.76°N, 83.7°W
Report Text: KDUH 280034Z AUTO 33008KT 4SM -SN SCT021 BKN030 OVC039 M01/M03 A3028 RMK AO2
Loading
Personal Weather Stations






























Interactive Weather Map New forecast layout! Learn more

10-Day Weather Forecast

Advertisements
Track Severe Weather on mobile